Time;durP1;ratioP1;P1;durP2;ratioP2;P2;SDS_P1;SDS_P2;PMS_P1;PMS_P2;Temp;Humidity;BMP_temperature;BMP_pressure;BME280_temperature;BME280_humidity;BME280_pressure;Samples;Min_cycle;Max_cycle;Signal;HPM_P1;HPM_P2
2023/07/15 00:00:38;;;;;;;9.60;1.58;;;;;;;;;;4976079;28;20034;-70
2023/07/15 00:03:05;;;;;;;5.10;1.63;;;;;;;;;;4976165;28;20042;-70
2023/07/15 00:05:35;;;;;;;9.25;1.50;;;;;;;;;;4976346;28;20038;-70
2023/07/15 00:08:05;;;;;;;8.25;1.55;;;;;;;;;;4975418;28;20045;-70
2023/07/15 00:10:31;;;;;;;7.53;1.67;;;;;;;;;;4975067;28;20031;-70
2023/07/15 00:12:57;;;;;;;20.15;2.20;;;;;;;;;;4975192;28;20117;-70
2023/07/15 00:15:22;;;;;;;5.82;1.88;;;;;;;;;;4976080;28;20459;-70
2023/07/15 00:17:48;;;;;;;5.55;1.83;;;;;;;;;;4976134;28;20039;-70
2023/07/15 00:20:18;;;;;;;6.65;1.75;;;;;;;;;;4975925;28;20031;-70
2023/07/15 00:22:44;;;;;;;7.60;1.85;;;;;;;;;;4974946;28;20041;-70
2023/07/15 00:25:17;;;;;;;10.18;1.65;;;;;;;;;;4969391;28;20391;-70
2023/07/15 00:27:43;;;;;;;7.93;2.10;;;;;;;;;;4974598;28;20049;-70
2023/07/15 00:30:11;;;;;;;8.88;1.65;;;;;;;;;;4975752;28;20038;-70
2023/07/15 00:32:37;;;;;;;5.82;1.73;;;;;;;;;;4969515;28;20407;-70
2023/07/15 00:35:08;;;;;;;9.25;2.38;;;;;;;;;;4975408;28;20043;-70
2023/07/15 00:37:36;;;;;;;7.18;1.73;;;;;;;;;;4974475;28;20074;-70
2023/07/15 00:40:03;;;;;;;4.72;1.40;;;;;;;;;;4974799;28;20539;-70
2023/07/15 00:42:58;;;;;;;14.73;1.98;;;;;;;;;;4975551;28;20390;-70
2023/07/15 00:45:23;;;;;;;7.88;1.70;;;;;;;;;;4975349;28;20504;-70
2023/07/15 00:48:16;;;;;;;12.32;2.38;;;;;;;;;;4975773;28;20111;-70
2023/07/15 00:50:42;;;;;;;8.55;1.67;;;;;;;;;;5006451;28;20037;-70
2023/07/15 00:53:09;;;;;;;7.03;1.73;;;;;;;;;;4973878;28;20042;-70
2023/07/15 00:55:34;;;;;;;8.13;1.70;;;;;;;;;;4974072;28;20775;-70
2023/07/15 00:58:00;;;;;;;13.80;1.88;;;;;;;;;;4974331;28;20039;-70
2023/07/15 01:00:26;;;;;;;5.85;1.52;;;;;;;;;;4974646;28;20543;-70
2023/07/15 01:02:52;;;;;;;12.18;2.05;;;;;;;;;;4974355;28;20073;-70
2023/07/15 01:05:17;;;;;;;8.35;2.03;;;;;;;;;;4974220;28;20058;-70
2023/07/15 01:07:43;;;;;;;9.23;1.77;;;;;;;;;;4973754;28;20026;-70
2023/07/15 01:10:08;;;;;;;6.55;1.60;;;;;;;;;;4974679;28;20043;-70
2023/07/15 01:12:34;;;;;;;7.05;2.28;;;;;;;;;;4975381;28;20039;-70
2023/07/15 01:14:59;;;;;;;6.85;1.98;;;;;;;;;;4975039;28;20447;-70
2023/07/15 01:17:25;;;;;;;10.75;2.22;;;;;;;;;;4974590;28;20035;-70
2023/07/15 01:19:50;;;;;;;10.63;2.13;;;;;;;;;;4975386;28;20047;-69
2023/07/15 01:22:17;;;;;;;8.75;1.83;;;;;;;;;;4973783;28;20023;-70
2023/07/15 01:24:42;;;;;;;8.43;1.95;;;;;;;;;;4973659;28;20046;-70
2023/07/15 01:27:08;;;;;;;11.52;2.15;;;;;;;;;;4975092;28;20043;-70
2023/07/15 01:29:33;;;;;;;9.38;1.88;;;;;;;;;;4974667;28;20031;-70
2023/07/15 01:31:59;;;;;;;13.60;2.13;;;;;;;;;;4974781;28;20041;-70
2023/07/15 01:34:24;;;;;;;7.65;1.90;;;;;;;;;;4974612;28;20047;-70
2023/07/15 01:36:50;;;;;;;8.10;2.05;;;;;;;;;;4974495;28;20418;-70
2023/07/15 01:39:16;;;;;;;11.10;2.00;;;;;;;;;;4974838;28;20047;-70
2023/07/15 01:41:42;;;;;;;9.85;2.08;;;;;;;;;;4974298;28;20039;-70
2023/07/15 01:44:07;;;;;;;8.85;2.15;;;;;;;;;;4974492;28;20041;-70
2023/07/15 01:46:36;;;;;;;9.95;2.00;;;;;;;;;;4974574;28;20396;-70
2023/07/15 01:49:03;;;;;;;10.18;2.40;;;;;;;;;;4973247;28;20035;-70
2023/07/15 01:51:29;;;;;;;8.25;2.00;;;;;;;;;;4974566;28;20045;-70
2023/07/15 01:53:54;;;;;;;14.18;2.28;;;;;;;;;;4974364;28;20096;-70
2023/07/15 01:56:21;;;;;;;16.23;2.13;;;;;;;;;;4974702;28;20467;-70
2023/07/15 01:58:46;;;;;;;15.00;2.00;;;;;;;;;;4973883;28;20038;-70
2023/07/15 02:01:12;;;;;;;9.82;1.80;;;;;;;;;;4973369;28;20053;-70
2023/07/15 02:03:37;;;;;;;9.82;2.50;;;;;;;;;;4974155;28;20057;-70
2023/07/15 02:06:03;;;;;;;13.68;2.28;;;;;;;;;;4974363;28;20058;-70
2023/07/15 02:08:28;;;;;;;13.10;2.47;;;;;;;;;;4973234;28;20547;-70
2023/07/15 02:10:53;;;;;;;17.38;1.95;;;;;;;;;;4974019;28;20403;-70
2023/07/15 02:13:18;;;;;;;10.63;2.47;;;;;;;;;;4973953;28;20518;-70
2023/07/15 02:15:44;;;;;;;13.93;2.80;;;;;;;;;;4976304;28;20053;-70
2023/07/15 02:18:09;;;;;;;11.57;2.22;;;;;;;;;;4980292;28;20031;-70
2023/07/15 02:20:35;;;;;;;9.18;2.25;;;;;;;;;;4980551;28;20117;-70
2023/07/15 02:23:00;;;;;;;14.57;2.45;;;;;;;;;;4980420;28;20113;-70
2023/07/15 02:25:25;;;;;;;14.68;2.80;;;;;;;;;;4980656;28;20042;-70
2023/07/15 02:27:51;;;;;;;11.88;2.15;;;;;;;;;;4979489;28;20031;-70
2023/07/15 02:30:16;;;;;;;9.95;2.40;;;;;;;;;;4979634;28;20037;-70
2023/07/15 02:32:42;;;;;;;17.05;2.20;;;;;;;;;;4980289;28;20118;-70
2023/07/15 02:35:09;;;;;;;14.05;2.83;;;;;;;;;;4980647;28;20427;-70
2023/07/15 02:37:35;;;;;;;12.52;2.08;;;;;;;;;;4980926;28;20113;-70
2023/07/15 02:40:01;;;;;;;13.85;2.25;;;;;;;;;;4979899;28;20534;-70
2023/07/15 02:42:26;;;;;;;14.75;2.92;;;;;;;;;;4980661;28;20113;-70
2023/07/15 02:44:52;;;;;;;11.70;2.45;;;;;;;;;;4980687;28;20115;-70
2023/07/15 02:47:17;;;;;;;9.27;2.17;;;;;;;;;;4978565;28;20126;-70
2023/07/15 02:49:43;;;;;;;10.52;2.03;;;;;;;;;;4980360;28;20117;-70
2023/07/15 02:52:08;;;;;;;16.90;2.55;;;;;;;;;;4980393;28;20035;-70
2023/07/15 02:54:34;;;;;;;11.13;2.42;;;;;;;;;;4979824;28;20043;-70
2023/07/15 02:56:59;;;;;;;10.80;2.45;;;;;;;;;;4980345;28;20543;-70
2023/07/15 02:59:24;;;;;;;11.20;2.38;;;;;;;;;;4979582;28;20055;-70
2023/07/15 03:01:49;;;;;;;11.75;2.58;;;;;;;;;;4979174;28;20507;-70
2023/07/15 03:04:15;;;;;;;12.18;2.28;;;;;;;;;;4980040;28;20097;-70
2023/07/15 03:06:41;;;;;;;11.27;2.20;;;;;;;;;;4980438;28;20438;-70
2023/07/15 03:09:06;;;;;;;14.68;2.60;;;;;;;;;;4979957;28;20035;-70
2023/07/15 03:11:32;;;;;;;10.23;2.30;;;;;;;;;;4979611;28;20037;-71
2023/07/15 03:13:57;;;;;;;15.63;2.30;;;;;;;;;;4980220;28;20475;-70
2023/07/15 03:16:23;;;;;;;8.98;2.33;;;;;;;;;;4979852;28;20462;-70
2023/07/15 03:18:48;;;;;;;10.07;2.38;;;;;;;;;;4979891;28;20030;-70
2023/07/15 03:21:14;;;;;;;14.10;2.17;;;;;;;;;;4980345;28;20369;-70
2023/07/15 03:23:39;;;;;;;14.57;2.42;;;;;;;;;;4978678;28;20042;-70
2023/07/15 03:26:04;;;;;;;7.50;1.90;;;;;;;;;;4980197;28;20034;-70
2023/07/15 03:28:30;;;;;;;9.45;2.53;;;;;;;;;;4975389;28;20046;-70
2023/07/15 03:30:55;;;;;;;16.00;2.40;;;;;;;;;;4977063;28;20038;-70
2023/07/15 03:33:21;;;;;;;12.52;2.45;;;;;;;;;;4975675;28;20053;-70
2023/07/15 03:35:47;;;;;;;12.30;2.00;;;;;;;;;;4976734;28;20050;-70
2023/07/15 03:38:12;;;;;;;9.43;2.20;;;;;;;;;;4976909;28;20043;-71
2023/07/15 03:40:37;;;;;;;11.40;1.92;;;;;;;;;;4976713;28;20112;-70
2023/07/15 03:43:03;;;;;;;9.30;1.90;;;;;;;;;;4976776;28;20047;-70
2023/07/15 03:45:29;;;;;;;7.60;1.98;;;;;;;;;;4976574;28;20042;-71
2023/07/15 03:47:55;;;;;;;9.70;1.92;;;;;;;;;;4976756;28;20114;-70
2023/07/15 03:50:20;;;;;;;7.43;2.20;;;;;;;;;;4976612;28;21356;-70
2023/07/15 03:52:46;;;;;;;6.63;1.42;;;;;;;;;;4976571;28;20043;-70
2023/07/15 03:55:11;;;;;;;11.63;2.00;;;;;;;;;;4976714;28;20438;-70
2023/07/15 03:57:37;;;;;;;10.95;2.10;;;;;;;;;;4976517;28;20043;-70
2023/07/15 04:00:06;;;;;;;11.25;2.30;;;;;;;;;;4975990;28;20469;-70
2023/07/15 04:02:32;;;;;;;17.00;2.35;;;;;;;;;;4975243;28;20062;-70
2023/07/15 04:04:57;;;;;;;9.73;2.00;;;;;;;;;;4976346;28;20081;-70
2023/07/15 04:07:22;;;;;;;13.73;2.35;;;;;;;;;;4976127;28;20039;-70
2023/07/15 04:09:48;;;;;;;8.73;1.83;;;;;;;;;;4975580;28;20037;-71
2023/07/15 04:12:13;;;;;;;8.50;2.17;;;;;;;;;;4975614;28;20038;-70
2023/07/15 04:14:38;;;;;;;8.13;1.85;;;;;;;;;;4976223;28;20127;-70
2023/07/15 04:17:04;;;;;;;13.02;2.85;;;;;;;;;;4973495;28;20038;-70
2023/07/15 04:19:29;;;;;;;13.10;2.25;;;;;;;;;;4975706;28;20407;-70
2023/07/15 04:21:54;;;;;;;10.90;1.90;;;;;;;;;;4976004;28;20376;-70
2023/07/15 04:24:20;;;;;;;11.32;1.85;;;;;;;;;;4975637;28;20109;-70
2023/07/15 04:26:45;;;;;;;9.80;2.40;;;;;;;;;;4975924;28;20121;-70
2023/07/15 04:29:10;;;;;;;6.43;2.08;;;;;;;;;;4975843;28;20122;-70
2023/07/15 04:31:37;;;;;;;17.33;3.90;;;;;;;;;;4975794;28;20418;-70
2023/07/15 04:34:02;;;;;;;12.85;2.25;;;;;;;;;;4975556;28;20618;-70
2023/07/15 04:36:28;;;;;;;9.52;1.88;;;;;;;;;;4976009;28;20109;-70
2023/07/15 04:38:53;;;;;;;9.65;2.53;;;;;;;;;;4975486;28;20026;-70
2023/07/15 04:41:19;;;;;;;7.22;1.80;;;;;;;;;;4975720;28;20038;-70
2023/07/15 04:43:44;;;;;;;17.27;2.40;;;;;;;;;;4975379;28;20050;-70
2023/07/15 04:46:10;;;;;;;6.47;2.50;;;;;;;;;;4974598;28;20042;-70
2023/07/15 04:48:36;;;;;;;12.30;2.10;;;;;;;;;;4974341;28;20050;-70
2023/07/15 04:51:01;;;;;;;14.48;2.33;;;;;;;;;;4975433;28;20039;-70
2023/07/15 04:53:26;;;;;;;23.85;2.70;;;;;;;;;;4975330;28;20035;-70
2023/07/15 04:55:52;;;;;;;15.98;2.53;;;;;;;;;;4975534;28;20114;-70
2023/07/15 04:58:18;;;;;;;14.50;2.22;;;;;;;;;;4974078;28;20114;-70
2023/07/15 05:00:45;;;;;;;15.00;2.10;;;;;;;;;;4973522;28;20395;-70
2023/07/15 05:03:11;;;;;;;8.55;1.90;;;;;;;;;;4975039;28;20512;-70
2023/07/15 05:05:37;;;;;;;7.68;1.98;;;;;;;;;;4975235;28;20042;-70
2023/07/15 05:08:12;;;;;;;12.10;2.33;;;;;;;;;;4975331;28;20117;-70
2023/07/15 05:10:39;;;;;;;15.60;2.83;;;;;;;;;;4968574;28;20121;-70
2023/07/15 05:13:05;;;;;;;13.68;2.83;;;;;;;;;;4974542;28;20432;-71
2023/07/15 05:15:32;;;;;;;9.68;2.22;;;;;;;;;;4973379;28;20031;-70
2023/07/15 05:17:57;;;;;;;11.07;2.17;;;;;;;;;;4970470;28;20487;-70
2023/07/15 05:20:24;;;;;;;13.63;2.60;;;;;;;;;;4975271;28;20130;-70
2023/07/15 05:22:49;;;;;;;7.85;1.77;;;;;;;;;;4974706;28;20364;-70
2023/07/15 05:25:15;;;;;;;8.60;2.20;;;;;;;;;;4974400;28;20101;-70
2023/07/15 05:27:41;;;;;;;7.95;1.85;;;;;;;;;;4974543;28;20035;-70
2023/07/15 05:30:08;;;;;;;14.27;2.13;;;;;;;;;;4974456;28;20380;-70
2023/07/15 05:32:33;;;;;;;15.88;3.00;;;;;;;;;;4973378;28;20042;-71
2023/07/15 05:34:59;;;;;;;10.65;1.92;;;;;;;;;;4974280;28;20039;-70
2023/07/15 05:37:24;;;;;;;11.18;2.05;;;;;;;;;;4974728;28;20046;-70
2023/07/15 05:39:49;;;;;;;12.48;2.10;;;;;;;;;;4974379;28;20043;-70
2023/07/15 05:42:15;;;;;;;11.43;2.65;;;;;;;;;;4974275;28;20038;-70
2023/07/15 05:44:40;;;;;;;9.77;2.47;;;;;;;;;;4974037;28;20061;-70
2023/07/15 05:47:06;;;;;;;17.80;2.25;;;;;;;;;;4971951;28;20462;-70
2023/07/15 05:49:32;;;;;;;9.15;1.90;;;;;;;;;;4974131;28;20041;-70
2023/07/15 05:51:57;;;;;;;8.20;1.90;;;;;;;;;;4974219;28;20043;-70
2023/07/15 05:54:22;;;;;;;14.00;2.35;;;;;;;;;;4973869;28;20039;-70
2023/07/15 05:56:48;;;;;;;15.80;2.10;;;;;;;;;;4974681;28;20069;-70
2023/07/15 05:59:13;;;;;;;8.50;2.35;;;;;;;;;;4972639;28;20073;-71
2023/07/15 06:01:41;;;;;;;13.65;1.80;;;;;;;;;;4974654;28;20042;-70
2023/07/15 06:04:06;;;;;;;13.18;2.38;;;;;;;;;;4973659;28;20038;-70
2023/07/15 06:06:32;;;;;;;11.60;2.40;;;;;;;;;;4972791;28;20043;-70
2023/07/15 06:08:57;;;;;;;10.90;2.08;;;;;;;;;;4974250;28;20081;-70
2023/07/15 06:11:23;;;;;;;9.55;1.90;;;;;;;;;;4974066;28;20030;-70
2023/07/15 06:13:48;;;;;;;10.55;1.95;;;;;;;;;;4973129;28;20042;-70
2023/07/15 06:16:13;;;;;;;17.20;3.90;;;;;;;;;;4973650;28;20479;-70
2023/07/15 06:18:39;;;;;;;10.27;2.03;;;;;;;;;;4973087;28;20034;-70
2023/07/15 06:21:07;;;;;;;11.48;1.48;;;;;;;;;;4973805;28;20049;-70
2023/07/15 06:23:32;;;;;;;8.35;1.75;;;;;;;;;;4973922;28;20047;-70
2023/07/15 06:25:58;;;;;;;10.73;2.05;;;;;;;;;;4973864;28;20052;-70
2023/07/15 06:28:23;;;;;;;6.47;1.33;;;;;;;;;;4973957;28;20043;-70
2023/07/15 06:30:50;;;;;;;10.70;1.40;;;;;;;;;;4973250;28;20118;-70
2023/07/15 06:33:15;;;;;;;10.25;1.70;;;;;;;;;;4974172;28;20034;-70
2023/07/15 06:35:41;;;;;;;13.73;2.03;;;;;;;;;;4973149;28;20090;-70
2023/07/15 06:38:07;;;;;;;8.07;1.85;;;;;;;;;;4970886;28;20554;-70
2023/07/15 06:40:32;;;;;;;13.52;1.70;;;;;;;;;;4974152;28;20110;-70
2023/07/15 06:42:58;;;;;;;10.05;1.67;;;;;;;;;;4974046;28;20039;-70
2023/07/15 06:45:31;;;;;;;7.45;1.40;;;;;;;;;;4973007;28;20039;-70
2023/07/15 06:47:57;;;;;;;8.02;2.20;;;;;;;;;;4974139;28;20027;-70
2023/07/15 06:50:22;;;;;;;8.02;1.70;;;;;;;;;;4974027;28;20117;-71
2023/07/15 06:52:47;;;;;;;6.65;1.45;;;;;;;;;;4973794;28;20121;-71
2023/07/15 06:55:13;;;;;;;6.95;1.40;;;;;;;;;;4974200;28;20038;-71
2023/07/15 06:57:38;;;;;;;5.18;1.23;;;;;;;;;;4973941;28;20047;-71
2023/07/15 07:00:04;;;;;;;7.70;1.40;;;;;;;;;;4966973;28;20554;-70
2023/07/15 07:02:30;;;;;;;9.38;1.60;;;;;;;;;;4956879;28;20368;-71
2023/07/15 07:04:55;;;;;;;5.35;1.25;;;;;;;;;;4977798;28;20057;-71
2023/07/15 07:07:23;;;;;;;8.90;1.75;;;;;;;;;;4977114;28;20112;-70
2023/07/15 07:09:48;;;;;;;9.38;1.58;;;;;;;;;;4977493;28;20039;-71
2023/07/15 07:12:14;;;;;;;4.65;1.40;;;;;;;;;;4977449;28;20399;-71
2023/07/15 07:14:40;;;;;;;10.77;1.35;;;;;;;;;;4977468;28;20035;-71
2023/07/15 07:17:05;;;;;;;7.55;1.63;;;;;;;;;;4977459;28;20478;-70
2023/07/15 07:19:31;;;;;;;8.57;1.52;;;;;;;;;;4976426;28;20042;-68
2023/07/15 07:21:56;;;;;;;7.22;1.55;;;;;;;;;;4977488;28;20046;-70
2023/07/15 07:24:22;;;;;;;6.00;1.35;;;;;;;;;;4977419;28;20113;-70
2023/07/15 07:26:51;;;;;;;6.55;1.40;;;;;;;;;;4977244;28;20042;-71
2023/07/15 07:29:16;;;;;;;7.72;1.55;;;;;;;;;;4977404;28;20043;-68
2023/07/15 07:31:41;;;;;;;7.90;1.65;;;;;;;;;;4976918;28;20044;-69
2023/07/15 07:34:07;;;;;;;9.70;1.70;;;;;;;;;;4977298;28;20379;-69
2023/07/15 07:36:32;;;;;;;8.02;1.88;;;;;;;;;;4976695;28;20114;-68
2023/07/15 07:38:57;;;;;;;6.78;1.83;;;;;;;;;;4977175;28;20420;-69
2023/07/15 07:41:23;;;;;;;6.00;1.40;;;;;;;;;;4977009;28;20586;-69
2023/07/15 07:43:48;;;;;;;6.53;1.90;;;;;;;;;;4976958;28;20492;-68
2023/07/15 07:46:14;;;;;;;5.80;1.50;;;;;;;;;;4976955;28;20401;-68
2023/07/15 07:48:39;;;;;;;5.55;1.33;;;;;;;;;;4976785;28;20047;-68
2023/07/15 07:51:05;;;;;;;7.72;1.67;;;;;;;;;;4976882;28;20097;-68
2023/07/15 07:53:30;;;;;;;4.53;1.20;;;;;;;;;;4975551;28;20356;-68
2023/07/15 07:55:56;;;;;;;8.35;1.40;;;;;;;;;;4976777;28;20391;-68
2023/07/15 07:58:21;;;;;;;6.60;1.30;;;;;;;;;;4976467;28;20054;-69
2023/07/15 08:00:47;;;;;;;7.60;1.63;;;;;;;;;;4976287;28;20046;-71
2023/07/15 08:03:12;;;;;;;10.35;1.77;;;;;;;;;;4976656;28;20034;-70
2023/07/15 08:05:43;;;;;;;5.80;1.35;;;;;;;;;;4975655;28;20050;-71
2023/07/15 08:08:09;;;;;;;3.35;1.10;;;;;;;;;;4974616;28;20045;-70
2023/07/15 08:10:34;;;;;;;6.75;1.38;;;;;;;;;;4975387;28;20039;-70
2023/07/15 08:13:02;;;;;;;5.85;2.00;;;;;;;;;;4973646;28;20094;-70
2023/07/15 08:15:28;;;;;;;7.65;1.67;;;;;;;;;;4975697;28;20065;-71
2023/07/15 08:17:53;;;;;;;9.25;1.80;;;;;;;;;;4974734;28;20074;-71
2023/07/15 08:20:19;;;;;;;10.63;1.88;;;;;;;;;;4975743;28;20093;-68
2023/07/15 08:22:44;;;;;;;8.98;1.50;;;;;;;;;;4976205;28;20043;-69
2023/07/15 08:25:10;;;;;;;5.60;1.35;;;;;;;;;;4976185;28;20047;-69
2023/07/15 08:27:36;;;;;;;6.47;1.75;;;;;;;;;;4964824;28;20038;-69
2023/07/15 08:30:01;;;;;;;8.13;1.75;;;;;;;;;;4975792;28;20035;-69
2023/07/15 08:32:26;;;;;;;8.07;1.70;;;;;;;;;;4976005;28;20126;-69
2023/07/15 08:35:02;;;;;;;7.22;1.58;;;;;;;;;;4975995;28;20411;-68
2023/07/15 08:37:27;;;;;;;8.32;1.85;;;;;;;;;;4975941;28;20040;-68
2023/07/15 08:39:53;;;;;;;6.05;1.55;;;;;;;;;;4975668;28;20046;-68
2023/07/15 08:42:21;;;;;;;7.15;1.20;;;;;;;;;;4974800;28;20034;-71
2023/07/15 08:44:51;;;;;;;9.45;1.65;;;;;;;;;;4974698;28;20041;-70
2023/07/15 08:47:23;;;;;;;10.13;1.85;;;;;;;;;;4974597;28;20045;-71
2023/07/15 08:49:49;;;;;;;8.13;1.90;;;;;;;;;;4974417;28;20030;-71
2023/07/15 08:52:19;;;;;;;6.07;1.52;;;;;;;;;;4974353;28;20499;-70
2023/07/15 08:54:48;;;;;;;8.55;2.05;;;;;;;;;;4974211;28;20070;-70
2023/07/15 08:57:15;;;;;;;7.40;1.40;;;;;;;;;;4975709;28;20084;-70
2023/07/15 08:59:40;;;;;;;7.07;1.42;;;;;;;;;;4974073;28;20057;-71
2023/07/15 09:02:05;;;;;;;6.85;1.70;;;;;;;;;;4974266;28;20038;-70
2023/07/15 09:04:31;;;;;;;6.30;1.30;;;;;;;;;;4975501;28;20037;-70
2023/07/15 09:06:56;;;;;;;7.18;1.75;;;;;;;;;;4975207;28;20038;-71
2023/07/15 09:09:35;;;;;;;10.55;1.63;;;;;;;;;;4974219;28;20464;-70
2023/07/15 09:12:03;;;;;;;7.05;1.45;;;;;;;;;;4974112;28;20117;-70
2023/07/15 09:14:28;;;;;;;10.65;1.70;;;;;;;;;;4975388;28;20039;-71
2023/07/15 09:16:55;;;;;;;11.00;2.47;;;;;;;;;;4974081;28;20166;-70
2023/07/15 09:19:25;;;;;;;8.63;1.38;;;;;;;;;;4975238;28;20110;-70
2023/07/15 09:22:03;;;;;;;7.15;1.50;;;;;;;;;;4972583;28;20122;-70
2023/07/15 09:24:30;;;;;;;6.07;1.27;;;;;;;;;;4975210;28;20125;-70
2023/07/15 09:26:55;;;;;;;11.75;1.80;;;;;;;;;;4971347;28;20423;-70
2023/07/15 09:29:21;;;;;;;9.30;1.50;;;;;;;;;;4975021;28;20045;-71
2023/07/15 09:31:46;;;;;;;8.50;1.30;;;;;;;;;;4974987;28;20509;-70
2023/07/15 09:34:12;;;;;;;6.93;1.73;;;;;;;;;;4973489;28;20030;-71
2023/07/15 09:36:37;;;;;;;7.75;1.80;;;;;;;;;;4968889;28;20043;-71
2023/07/15 09:39:11;;;;;;;6.20;1.67;;;;;;;;;;4966025;28;20063;-70
2023/07/15 09:41:36;;;;;;;12.20;2.20;;;;;;;;;;4973779;28;20047;-70
2023/07/15 09:44:01;;;;;;;8.57;1.55;;;;;;;;;;4974921;28;20122;-69
2023/07/15 09:46:28;;;;;;;5.57;1.80;;;;;;;;;;4974745;28;20085;-69
2023/07/15 09:48:55;;;;;;;4.90;1.80;;;;;;;;;;4974806;28;20042;-69
2023/07/15 09:51:20;;;;;;;6.65;1.73;;;;;;;;;;4974879;28;20035;-69
2023/07/15 09:53:50;;;;;;;8.98;1.95;;;;;;;;;;4972600;28;20546;-69
2023/07/15 09:56:21;;;;;;;5.55;1.80;;;;;;;;;;4974703;28;20046;-69
2023/07/15 09:58:49;;;;;;;7.53;1.55;;;;;;;;;;4972765;28;20026;-70
2023/07/15 10:01:26;;;;;;;5.32;1.50;;;;;;;;;;4973299;28;20051;-71
2023/07/15 10:04:02;;;;;;;6.40;1.77;;;;;;;;;;4966862;28;20043;-70
2023/07/15 10:06:28;;;;;;;8.00;1.80;;;;;;;;;;4973293;28;20035;-70
2023/07/15 10:08:54;;;;;;;9.95;1.75;;;;;;;;;;4974632;28;20108;-71
2023/07/15 10:11:19;;;;;;;6.97;1.80;;;;;;;;;;4973270;28;20035;-70
2023/07/15 10:13:45;;;;;;;7.03;1.63;;;;;;;;;;4974377;28;20030;-70
2023/07/15 10:16:10;;;;;;;7.90;1.65;;;;;;;;;;4972917;28;20042;-70
2023/07/15 10:18:36;;;;;;;4.80;1.20;;;;;;;;;;4973256;28;20113;-70
2023/07/15 10:21:03;;;;;;;5.30;1.55;;;;;;;;;;4973488;28;20035;-70
2023/07/15 10:23:31;;;;;;;7.85;1.58;;;;;;;;;;4974401;28;20039;-70
2023/07/15 10:26:07;;;;;;;8.45;1.45;;;;;;;;;;4974369;28;20039;-70
2023/07/15 10:28:34;;;;;;;8.60;1.52;;;;;;;;;;4974336;28;20042;-70
2023/07/15 10:31:11;;;;;;;4.50;1.30;;;;;;;;;;4966563;28;20043;-70
2023/07/15 10:33:52;;;;;;;6.65;1.50;;;;;;;;;;4974095;28;20074;-70
2023/07/15 10:36:34;;;;;;;8.10;1.58;;;;;;;;;;4974447;28;20047;-71
2023/07/15 10:39:15;;;;;;;10.20;2.20;;;;;;;;;;4966859;28;20046;-71
2023/07/15 10:41:48;;;;;;;4.60;1.27;;;;;;;;;;4978302;28;20043;-71
2023/07/15 10:44:20;;;;;;;10.05;1.55;;;;;;;;;;4977845;28;20487;-68
2023/07/15 10:47:06;;;;;;;4.10;1.13;;;;;;;;;;4976544;28;20553;-70
2023/07/15 10:49:31;;;;;;;6.03;1.50;;;;;;;;;;4977373;28;20518;-70
2023/07/15 10:51:57;;;;;;;5.05;1.50;;;;;;;;;;4977872;28;20042;-70
2023/07/15 10:54:25;;;;;;;3.92;1.33;;;;;;;;;;4976277;28;20105;-70
2023/07/15 10:56:51;;;;;;;7.30;1.23;;;;;;;;;;4975210;28;20403;-71
2023/07/15 10:59:16;;;;;;;5.65;1.35;;;;;;;;;;4976642;28;20046;-71
2023/07/15 11:01:42;;;;;;;8.40;1.38;;;;;;;;;;4977350;28;20053;-70
2023/07/15 11:04:08;;;;;;;4.25;1.10;;;;;;;;;;4977499;28;20045;-70
2023/07/15 11:06:34;;;;;;;9.05;1.70;;;;;;;;;;4975884;28;20046;-70
2023/07/15 11:09:16;;;;;;;6.07;1.40;;;;;;;;;;4977436;28;20035;-70
2023/07/15 11:11:41;;;;;;;7.18;1.85;;;;;;;;;;4977262;28;20053;-70
2023/07/15 11:14:18;;;;;;;4.05;1.10;;;;;;;;;;4977687;28;20030;-70
2023/07/15 11:16:43;;;;;;;7.03;1.15;;;;;;;;;;4977355;28;20073;-70
2023/07/15 11:19:13;;;;;;;3.83;0.85;;;;;;;;;;4977462;28;20038;-70
2023/07/15 11:21:39;;;;;;;4.40;1.42;;;;;;;;;;4977511;28;20031;-70
2023/07/15 11:24:04;;;;;;;4.00;0.93;;;;;;;;;;4976367;28;20050;-70
2023/07/15 11:26:29;;;;;;;5.65;1.15;;;;;;;;;;4976050;28;20046;-70
2023/07/15 11:28:55;;;;;;;6.55;1.88;;;;;;;;;;4977252;28;20042;-70
2023/07/15 11:31:21;;;;;;;6.45;1.20;;;;;;;;;;4977447;28;20053;-70
2023/07/15 11:33:57;;;;;;;7.32;1.30;;;;;;;;;;4975994;28;20027;-70
2023/07/15 11:36:22;;;;;;;6.25;1.58;;;;;;;;;;4976221;28;20038;-70
2023/07/15 11:38:47;;;;;;;3.70;1.00;;;;;;;;;;4975764;28;20116;-70
2023/07/15 11:41:13;;;;;;;3.75;0.88;;;;;;;;;;4977174;28;20063;-70
2023/07/15 11:43:38;;;;;;;1.30;0.70;;;;;;;;;;4975762;28;20034;-71
2023/07/15 11:46:04;;;;;;;2.17;0.77;;;;;;;;;;4977029;28;20045;-70
2023/07/15 11:48:33;;;;;;;2.45;1.05;;;;;;;;;;4975988;28;20027;-70
2023/07/15 11:51:09;;;;;;;3.90;0.73;;;;;;;;;;4976677;28;20602;-70
2023/07/15 11:53:37;;;;;;;2.95;0.77;;;;;;;;;;4976641;28;20046;-70
2023/07/15 11:56:03;;;;;;;1.63;0.70;;;;;;;;;;4975661;28;20030;-70
2023/07/15 11:58:49;;;;;;;4.70;0.73;;;;;;;;;;4975758;28;20045;-70
2023/07/15 12:01:18;;;;;;;2.88;0.98;;;;;;;;;;4965503;28;20256;-71
2023/07/15 12:03:44;;;;;;;4.22;1.10;;;;;;;;;;4975187;28;20046;-70
2023/07/15 12:06:17;;;;;;;5.72;0.75;;;;;;;;;;4975576;28;20356;-70
2023/07/15 12:09:03;;;;;;;7.88;0.80;;;;;;;;;;4966636;28;20038;-70
2023/07/15 12:11:32;;;;;;;1.88;0.80;;;;;;;;;;4974203;28;20041;-71
2023/07/15 12:13:58;;;;;;;6.22;0.68;;;;;;;;;;4967928;28;20077;-70
2023/07/15 12:16:24;;;;;;;1.40;0.70;;;;;;;;;;4973398;28;20097;-70
2023/07/15 12:18:50;;;;;;;1.55;0.60;;;;;;;;;;4972285;28;20471;-70
2023/07/15 12:21:15;;;;;;;2.40;0.70;;;;;;;;;;4976562;28;20049;-70
2023/07/15 12:23:42;;;;;;;0.80;0.50;;;;;;;;;;4976021;28;20121;-70
2023/07/15 12:26:07;;;;;;;2.63;0.82;;;;;;;;;;4973142;28;20042;-70
2023/07/15 12:28:33;;;;;;;2.25;0.68;;;;;;;;;;4976160;28;20039;-70
2023/07/15 12:30:58;;;;;;;2.53;0.70;;;;;;;;;;4975000;28;20043;-70
2023/07/15 12:33:24;;;;;;;1.45;0.70;;;;;;;;;;4976185;28;20398;-70
2023/07/15 12:35:50;;;;;;;5.35;0.85;;;;;;;;;;4974628;28;20467;-70
2023/07/15 12:38:15;;;;;;;3.83;0.88;;;;;;;;;;4975940;28;20042;-70
2023/07/15 12:40:41;;;;;;;5.05;1.10;;;;;;;;;;4974664;28;20452;-70
2023/07/15 12:43:06;;;;;;;3.03;1.35;;;;;;;;;;4976056;28;20483;-70
2023/07/15 12:45:32;;;;;;;5.95;0.80;;;;;;;;;;4974661;28;20081;-70
2023/07/15 12:47:57;;;;;;;3.63;0.80;;;;;;;;;;4975383;28;20035;-70
2023/07/15 12:50:22;;;;;;;8.18;1.02;;;;;;;;;;4975761;28;20035;-70
2023/07/15 12:52:47;;;;;;;14.80;2.38;;;;;;;;;;4975736;28;20039;-70
2023/07/15 12:55:13;;;;;;;3.83;0.90;;;;;;;;;;4975798;28;20045;-70
2023/07/15 12:57:39;;;;;;;4.38;1.42;;;;;;;;;;4975632;28;20050;-70
2023/07/15 13:00:05;;;;;;;2.70;0.90;;;;;;;;;;4975402;28;20062;-70
2023/07/15 13:02:31;;;;;;;3.83;0.93;;;;;;;;;;4975410;28;20501;-70
2023/07/15 13:04:56;;;;;;;3.05;0.70;;;;;;;;;;4975290;28;20038;-70
2023/07/15 13:07:22;;;;;;;2.70;1.00;;;;;;;;;;4975569;28;20143;-70
2023/07/15 13:09:47;;;;;;;2.70;0.85;;;;;;;;;;4975374;28;20427;-70
2023/07/15 13:12:13;;;;;;;3.50;1.15;;;;;;;;;;4975402;28;20422;-70
2023/07/15 13:14:38;;;;;;;3.22;0.95;;;;;;;;;;4973883;28;20097;-70
2023/07/15 13:17:04;;;;;;;5.85;1.35;;;;;;;;;;4974916;28;20045;-70
2023/07/15 13:19:30;;;;;;;4.38;0.90;;;;;;;;;;4974986;28;20149;-70
2023/07/15 13:21:55;;;;;;;3.08;0.77;;;;;;;;;;4975249;28;20047;-70
2023/07/15 13:24:24;;;;;;;7.05;1.02;;;;;;;;;;4975166;28;20402;-70
2023/07/15 13:26:50;;;;;;;3.10;0.82;;;;;;;;;;4975202;28;20046;-70
2023/07/15 13:29:15;;;;;;;2.95;0.70;;;;;;;;;;4974668;28;20051;-70
2023/07/15 13:31:40;;;;;;;5.28;1.20;;;;;;;;;;4974891;28;20026;-70
2023/07/15 13:34:06;;;;;;;6.38;1.10;;;;;;;;;;4973666;28;20041;-70
2023/07/15 13:36:31;;;;;;;4.47;1.75;;;;;;;;;;4975027;28;20043;-70
2023/07/15 13:38:56;;;;;;;9.43;1.48;;;;;;;;;;4974859;28;20038;-70
2023/07/15 13:41:22;;;;;;;6.38;1.10;;;;;;;;;;4974807;28;20034;-70
2023/07/15 13:43:47;;;;;;;3.42;0.98;;;;;;;;;;4974734;28;20419;-70
2023/07/15 13:46:12;;;;;;;6.82;1.27;;;;;;;;;;4974570;28;20027;-70
2023/07/15 13:48:38;;;;;;;9.93;1.00;;;;;;;;;;4973609;28;20125;-70
2023/07/15 13:51:03;;;;;;;9.77;1.05;;;;;;;;;;4974772;28;20062;-70
2023/07/15 13:53:29;;;;;;;3.63;0.73;;;;;;;;;;4974725;28;20031;-70
2023/07/15 13:55:54;;;;;;;4.38;1.17;;;;;;;;;;4974599;28;20114;-70
2023/07/15 13:58:19;;;;;;;5.63;1.35;;;;;;;;;;4973444;28;20046;-70
2023/07/15 14:00:45;;;;;;;3.47;0.82;;;;;;;;;;4974312;28;20066;-70
2023/07/15 14:03:10;;;;;;;4.75;1.00;;;;;;;;;;4974559;28;20038;-70
2023/07/15 14:05:36;;;;;;;7.03;1.10;;;;;;;;;;4974435;28;20039;-70
2023/07/15 14:08:01;;;;;;;6.95;1.23;;;;;;;;;;4973380;28;20038;-70
2023/07/15 14:10:27;;;;;;;4.28;1.10;;;;;;;;;;4974623;28;20055;-70
2023/07/15 14:12:52;;;;;;;6.18;1.05;;;;;;;;;;4973906;28;20049;-70
2023/07/15 14:15:17;;;;;;;5.40;1.10;;;;;;;;;;4974320;28;20038;-70
2023/07/15 14:17:43;;;;;;;3.05;0.90;;;;;;;;;;4974525;28;20399;-70
2023/07/15 14:20:09;;;;;;;5.22;1.05;;;;;;;;;;4973681;28;20051;-70
2023/07/15 14:22:34;;;;;;;6.53;1.65;;;;;;;;;;4974472;28;20081;-70
2023/07/15 14:24:59;;;;;;;3.85;1.23;;;;;;;;;;4974217;28;20062;-70
2023/07/15 14:27:25;;;;;;;4.65;1.02;;;;;;;;;;4974317;28;20101;-70
2023/07/15 14:29:50;;;;;;;7.95;1.20;;;;;;;;;;4974353;28;20114;-70
2023/07/15 14:32:15;;;;;;;8.82;1.30;;;;;;;;;;4974075;28;20137;-70
2023/07/15 14:34:40;;;;;;;10.25;1.30;;;;;;;;;;4973235;28;20075;-70